Time;durP1;ratioP1;P1;durP2;ratioP2;P2;SDS_P1;SDS_P2;PMS_P1;PMS_P2;Temp;Humidity;BMP_temperature;BMP_pressure;BME280_temperature;BME280_humidity;BME280_pressure;Samples;Min_cycle;Max_cycle;Signal;HPM_P1;HPM_P2
2022/05/07 00:02:18;;;;;;;15.05;7.93;;;;;;;;;;4933267;29;20032;-76
2022/05/07 00:04:44;;;;;;;14.10;8.15;;;;;;;;;;4917053;29;20548;-76
2022/05/07 00:07:10;;;;;;;17.00;9.07;;;;;;;;;;4917719;29;20028;-75
2022/05/07 00:09:36;;;;;;;19.00;9.27;;;;;;;;;;4934185;29;20032;-77
2022/05/07 00:12:02;;;;;;;14.98;8.57;;;;;;;;;;4920174;29;20028;-76
2022/05/07 00:14:28;;;;;;;13.52;8.30;;;;;;;;;;4936045;29;20059;-76
2022/05/07 00:19:38;;;;;;;16.98;9.13;;;;;;;;;;4920929;29;20056;-76
2022/05/07 00:22:04;;;;;;;21.33;11.00;;;;;;;;;;4920701;29;20119;-76
2022/05/07 00:24:33;;;;;;;21.98;10.45;;;;;;;;;;4919475;29;20036;-75
2022/05/07 00:26:58;;;;;;;17.98;10.38;;;;;;;;;;4919608;29;20068;-77
2022/05/07 00:29:27;;;;;;;18.23;9.35;;;;;;;;;;4919103;29;20032;-76
2022/05/07 00:31:58;;;;;;;17.00;9.20;;;;;;;;;;4934410;29;20107;-76
2022/05/07 00:34:25;;;;;;;14.98;8.55;;;;;;;;;;4904255;29;20036;-74
2022/05/07 00:36:51;;;;;;;15.80;8.55;;;;;;;;;;4903288;29;20047;-75
2022/05/07 00:39:17;;;;;;;18.63;9.45;;;;;;;;;;4902442;29;20040;-75
2022/05/07 00:41:42;;;;;;;15.43;9.55;;;;;;;;;;4933741;29;20025;-75
2022/05/07 00:44:08;;;;;;;18.25;8.85;;;;;;;;;;4933694;29;20040;-75
2022/05/07 00:46:34;;;;;;;17.52;9.45;;;;;;;;;;4919429;29;20028;-76
2022/05/07 00:49:02;;;;;;;18.63;10.02;;;;;;;;;;4919428;29;20480;-76
2022/05/07 00:51:34;;;;;;;13.10;8.20;;;;;;;;;;4934888;29;20048;-77
2022/05/07 00:54:00;;;;;;;18.10;8.45;;;;;;;;;;4903077;29;20051;-75
2022/05/07 00:56:26;;;;;;;15.20;7.95;;;;;;;;;;4935103;29;20099;-76
2022/05/07 00:58:52;;;;;;;16.30;8.30;;;;;;;;;;4935276;29;20522;-76
2022/05/07 01:01:18;;;;;;;14.43;7.70;;;;;;;;;;4935084;29;20040;-76
2022/05/07 01:03:46;;;;;;;15.40;8.60;;;;;;;;;;4919364;29;20036;-76
2022/05/07 01:06:13;;;;;;;14.57;7.80;;;;;;;;;;4934552;29;20064;-74
2022/05/07 01:08:39;;;;;;;14.65;7.55;;;;;;;;;;4919262;29;20032;-76
2022/05/07 01:11:05;;;;;;;15.50;8.30;;;;;;;;;;4919616;29;20028;-75
2022/05/07 01:13:32;;;;;;;14.18;7.53;;;;;;;;;;4904001;29;20039;-77
2022/05/07 01:15:58;;;;;;;16.85;8.25;;;;;;;;;;4936480;29;20067;-75
2022/05/07 01:18:29;;;;;;;17.27;7.05;;;;;;;;;;4920786;29;20078;-75
2022/05/07 01:20:57;;;;;;;14.63;7.50;;;;;;;;;;4920132;29;20114;-75
2022/05/07 01:23:27;;;;;;;18.65;8.23;;;;;;;;;;4935866;29;20036;-75
2022/05/07 01:25:56;;;;;;;16.80;7.72;;;;;;;;;;4935837;29;20079;-75
2022/05/07 01:28:22;;;;;;;12.70;7.88;;;;;;;;;;4920732;29;20107;-76
2022/05/07 01:30:48;;;;;;;16.45;7.75;;;;;;;;;;4922105;29;20058;-75
2022/05/07 01:33:13;;;;;;;12.18;7.72;;;;;;;;;;4921428;29;20067;-75
2022/05/07 01:35:40;;;;;;;11.88;7.70;;;;;;;;;;4922061;29;20047;-76
2022/05/07 01:38:06;;;;;;;12.95;8.00;;;;;;;;;;4908063;29;20048;-76
2022/05/07 01:40:34;;;;;;;16.33;7.85;;;;;;;;;;4908418;29;20039;-75
2022/05/07 01:43:01;;;;;;;14.20;8.63;;;;;;;;;;4912762;29;20410;-77
2022/05/07 01:45:27;;;;;;;13.07;7.38;;;;;;;;;;4914962;29;20488;-74
2022/05/07 01:48:10;;;;;;;16.40;7.95;;;;;;;;;;4930895;29;20127;-75
2022/05/07 01:50:42;;;;;;;15.35;7.25;;;;;;;;;;4946862;29;20036;-75
2022/05/07 01:53:12;;;;;;;13.10;7.63;;;;;;;;;;4931387;29;20040;-76
2022/05/07 01:55:43;;;;;;;13.75;7.43;;;;;;;;;;4931467;29;20218;-76
2022/05/07 01:58:11;;;;;;;10.30;6.80;;;;;;;;;;4946586;29;20040;-76
2022/05/07 02:00:40;;;;;;;10.82;7.05;;;;;;;;;;4930431;29;20058;-75
2022/05/07 02:03:05;;;;;;;;;;;;;;;;;;4929456;29;20103;-74
2022/05/07 02:05:31;;;;;;;10.43;6.50;;;;;;;;;;4913746;29;19911;-75
2022/05/07 02:07:57;;;;;;;11.75;6.10;;;;;;;;;;4945794;29;20032;-75
2022/05/07 02:10:24;;;;;;;11.18;6.18;;;;;;;;;;4916791;29;20052;-75
2022/05/07 02:12:50;;;;;;;12.18;6.20;;;;;;;;;;4932264;29;20043;-75
2022/05/07 02:15:19;;;;;;;14.13;6.88;;;;;;;;;;4948041;29;20028;-75
2022/05/07 02:17:49;;;;;;;15.75;6.55;;;;;;;;;;4933814;29;20036;-76
2022/05/07 02:20:15;;;;;;;10.02;6.50;;;;;;;;;;4948867;29;20072;-75
2022/05/07 02:22:41;;;;;;;17.85;6.30;;;;;;;;;;4931983;29;20043;-75
2022/05/07 02:25:07;;;;;;;22.40;13.43;;;;;;;;;;4948142;29;20088;-76
2022/05/07 02:27:33;;;;;;;14.98;7.78;;;;;;;;;;4945315;29;20025;-76
2022/05/07 02:30:00;;;;;;;10.73;5.97;;;;;;;;;;4927215;29;20043;-77
2022/05/07 02:32:28;;;;;;;10.63;6.25;;;;;;;;;;4928147;29;20032;-76
2022/05/07 02:34:54;;;;;;;10.35;6.07;;;;;;;;;;4932121;29;20035;-75
2022/05/07 02:37:25;;;;;;;13.90;6.63;;;;;;;;;;4948251;29;20049;-76
2022/05/07 02:39:53;;;;;;;15.95;6.80;;;;;;;;;;4946004;29;20040;-75
2022/05/07 02:42:36;;;;;;;15.27;6.55;;;;;;;;;;4927412;29;20047;-75
2022/05/07 02:45:14;;;;;;;13.45;6.55;;;;;;;;;;4941363;29;20027;-77
2022/05/07 02:47:42;;;;;;;11.38;6.20;;;;;;;;;;4910302;29;20061;-77
2022/05/07 02:50:08;;;;;;;12.75;6.47;;;;;;;;;;4941189;29;20032;-76
2022/05/07 02:52:34;;;;;;;17.73;6.43;;;;;;;;;;4940367;29;20499;-75
2022/05/07 02:55:02;;;;;;;16.95;6.20;;;;;;;;;;4922433;29;20036;-75
2022/05/07 02:57:28;;;;;;;13.95;5.60;;;;;;;;;;4923762;29;20071;-75
2022/05/07 02:59:57;;;;;;;14.60;6.68;;;;;;;;;;4922772;29;20032;-77
2022/05/07 03:02:23;;;;;;;13.05;6.45;;;;;;;;;;4941523;29;20036;-76
2022/05/07 03:04:49;;;;;;;15.57;6.38;;;;;;;;;;4925665;29;20027;-76
2022/05/07 03:07:16;;;;;;;15.00;6.60;;;;;;;;;;4940161;29;20083;-76
2022/05/07 03:09:43;;;;;;;11.00;6.28;;;;;;;;;;4908508;29;20039;-75
2022/05/07 03:12:14;;;;;;;13.35;6.63;;;;;;;;;;4925752;29;20032;-76
2022/05/07 03:14:43;;;;;;;9.07;5.85;;;;;;;;;;4924001;29;20080;-76
2022/05/07 03:17:11;;;;;;;14.35;6.30;;;;;;;;;;4908566;29;20116;-75
2022/05/07 03:19:42;;;;;;;13.15;5.40;;;;;;;;;;4939131;29;20094;-75
2022/05/07 03:22:08;;;;;;;16.52;6.25;;;;;;;;;;4923409;29;20040;-76
2022/05/07 03:24:38;;;;;;;12.77;5.85;;;;;;;;;;4907427;29;20038;-76
2022/05/07 03:27:05;;;;;;;10.10;6.05;;;;;;;;;;4926420;29;20028;-76
2022/05/07 03:29:32;;;;;;;13.32;6.30;;;;;;;;;;4941637;29;20032;-75
2022/05/07 03:32:19;;;;;;;9.57;5.82;;;;;;;;;;4941257;29;20070;-76
2022/05/07 03:34:49;;;;;;;12.40;6.45;;;;;;;;;;4940085;29;20098;-75
2022/05/07 03:37:16;;;;;;;17.65;5.93;;;;;;;;;;4924605;29;20043;-76
2022/05/07 03:39:43;;;;;;;9.98;4.82;;;;;;;;;;4909167;29;20047;-75
2022/05/07 03:42:13;;;;;;;13.18;6.43;;;;;;;;;;4925349;29;20032;-76
2022/05/07 03:44:39;;;;;;;10.65;5.60;;;;;;;;;;4924329;29;20056;-75
2022/05/07 03:47:06;;;;;;;12.80;5.65;;;;;;;;;;4923629;29;20036;-75
2022/05/07 03:49:31;;;;;;;15.65;6.20;;;;;;;;;;4938568;29;20036;-76
2022/05/07 03:54:43;;;;;;;15.57;6.00;;;;;;;;;;4924459;29;20036;-76
2022/05/07 03:57:13;;;;;;;14.25;5.47;;;;;;;;;;4922996;29;20060;-75
2022/05/07 03:59:40;;;;;;;16.33;5.25;;;;;;;;;;4905632;29;20031;-76
2022/05/07 04:02:07;;;;;;;17.27;5.47;;;;;;;;;;4920367;29;20036;-75
2022/05/07 04:04:44;;;;;;;15.23;6.00;;;;;;;;;;4904257;29;20032;-76
2022/05/07 04:07:14;;;;;;;15.85;5.43;;;;;;;;;;4919010;29;20031;-75
2022/05/07 04:09:46;;;;;;;19.35;6.40;;;;;;;;;;4904339;29;20043;-76
2022/05/07 04:12:12;;;;;;;20.65;6.03;;;;;;;;;;4935907;29;20040;-75
2022/05/07 04:14:38;;;;;;;11.35;5.70;;;;;;;;;;4935962;29;20032;-75
2022/05/07 04:17:06;;;;;;;15.75;5.20;;;;;;;;;;4936386;29;20070;-76
2022/05/07 04:19:33;;;;;;;15.20;5.32;;;;;;;;;;4921863;29;20067;-75
2022/05/07 04:22:01;;;;;;;9.73;4.80;;;;;;;;;;4937292;29;20042;-76
2022/05/07 04:24:36;;;;;;;13.48;5.93;;;;;;;;;;4920302;29;20039;-75
2022/05/07 04:27:03;;;;;;;10.98;4.85;;;;;;;;;;4920618;29;20066;-76
2022/05/07 04:29:29;;;;;;;13.27;5.47;;;;;;;;;;4921100;29;20056;-76
2022/05/07 04:32:15;;;;;;;17.13;5.32;;;;;;;;;;4922430;29;20063;-75
2022/05/07 04:34:46;;;;;;;8.73;5.00;;;;;;;;;;4940089;29;20038;-75
2022/05/07 04:37:13;;;;;;;16.88;5.35;;;;;;;;;;4906406;29;20044;-75
2022/05/07 04:39:38;;;;;;;12.35;5.15;;;;;;;;;;4952701;23;20044;-82
2022/05/07 04:42:07;;;;;;;19.98;6.28;;;;;;;;;;4953054;29;20038;-79
2022/05/07 04:44:43;;;;;;;11.52;5.15;;;;;;;;;;4938899;29;20079;-79
2022/05/07 04:47:17;;;;;;;14.32;6.43;;;;;;;;;;4922600;29;20046;-79
2022/05/07 04:49:43;;;;;;;13.38;5.50;;;;;;;;;;4949877;29;20079;-79
2022/05/07 04:52:10;;;;;;;12.95;5.10;;;;;;;;;;4918148;29;20377;-81
2022/05/07 04:54:38;;;;;;;9.85;5.43;;;;;;;;;;4918451;29;20043;-79
2022/05/07 04:57:05;;;;;;;11.48;5.40;;;;;;;;;;4949899;29;20032;-80
2022/05/07 04:59:41;;;;;;;13.57;5.82;;;;;;;;;;4935473;29;20031;-79
2022/05/07 05:02:14;;;;;;;10.60;5.40;;;;;;;;;;4933962;29;20035;-81
2022/05/07 05:04:46;;;;;;;10.73;4.50;;;;;;;;;;4949460;29;20030;-81
2022/05/07 05:07:14;;;;;;;9.43;5.13;;;;;;;;;;4949927;29;20035;-81
2022/05/07 05:09:43;;;;;;;;;;;;;;;;;;4934377;29;20027;-80
2022/05/07 05:12:19;;;;;;;10.50;4.78;;;;;;;;;;4933832;29;19910;-80
2022/05/07 05:15:06;;;;;;;11.00;5.25;;;;;;;;;;4933482;29;20182;-80
2022/05/07 05:17:46;;;;;;;11.70;5.50;;;;;;;;;;4934559;29;20035;-79
2022/05/07 05:20:11;;;;;;;12.93;4.90;;;;;;;;;;4933566;29;20478;-78
2022/05/07 05:22:47;;;;;;;10.68;5.75;;;;;;;;;;4949222;29;20063;-80
2022/05/07 05:25:15;;;;;;;9.57;5.30;;;;;;;;;;4933700;29;20543;-80
2022/05/07 05:27:40;;;;;;;12.88;5.43;;;;;;;;;;4918132;29;20111;-81
2022/05/07 05:30:07;;;;;;;25.90;5.90;;;;;;;;;;4933552;29;20114;-81
2022/05/07 05:32:32;;;;;;;14.90;5.47;;;;;;;;;;4917519;29;20039;-78
2022/05/07 05:35:02;;;;;;;9.68;5.45;;;;;;;;;;4902317;29;20122;-80
2022/05/07 05:37:37;;;;;;;11.07;5.95;;;;;;;;;;4918900;29;20039;-80
2022/05/07 05:40:03;;;;;;;10.13;5.28;;;;;;;;;;4901887;29;20071;-82
2022/05/07 05:42:36;;;;;;;14.90;5.03;;;;;;;;;;4902781;29;20471;-80
2022/05/07 05:45:02;;;;;;;10.63;5.25;;;;;;;;;;4901850;29;20484;-80
2022/05/07 05:47:28;;;;;;;11.00;5.63;;;;;;;;;;4902017;29;20042;-79
2022/05/07 05:49:53;;;;;;;13.30;5.05;;;;;;;;;;4933393;29;20039;-79
2022/05/07 05:52:24;;;;;;;9.45;5.28;;;;;;;;;;4902839;29;20040;-81
2022/05/07 05:54:50;;;;;;;10.57;4.97;;;;;;;;;;4917151;29;20487;-81
2022/05/07 05:57:16;;;;;;;11.13;5.40;;;;;;;;;;4917495;29;20046;-79
2022/05/07 05:59:43;;;;;;;8.25;5.05;;;;;;;;;;4934647;29;20032;-79
2022/05/07 06:02:09;;;;;;;12.23;5.38;;;;;;;;;;4949276;29;20027;-79
2022/05/07 06:04:40;;;;;;;12.43;6.30;;;;;;;;;;4949951;29;20031;-79
2022/05/07 06:07:15;;;;;;;13.75;5.50;;;;;;;;;;4950016;29;20144;-81
2022/05/07 06:09:42;;;;;;;15.85;5.63;;;;;;;;;;4933924;29;20479;-79
2022/05/07 06:12:13;;;;;;;16.20;6.22;;;;;;;;;;4918623;29;20038;-80
2022/05/07 06:14:39;;;;;;;14.43;6.40;;;;;;;;;;4933948;29;20040;-80
2022/05/07 06:17:08;;;;;;;13.60;6.50;;;;;;;;;;4903457;29;20086;-80
2022/05/07 06:19:33;;;;;;;13.60;6.15;;;;;;;;;;4935311;29;20523;-80
2022/05/07 06:21:59;;;;;;;13.48;5.43;;;;;;;;;;4934468;29;20076;-79
2022/05/07 06:27:28;;;;;;;12.40;5.47;;;;;;;;;;4933537;29;20028;-80
2022/05/07 06:30:12;;;;;;;11.98;6.43;;;;;;;;;;4937922;29;20111;-80
2022/05/07 06:32:45;;;;;;;11.13;5.53;;;;;;;;;;4936358;29;20040;-80
2022/05/07 06:35:11;;;;;;;10.50;5.75;;;;;;;;;;4952844;29;20056;-79
2022/05/07 06:38:13;;;;;;;9.50;4.90;;;;;;;;;;4932967;29;20042;-78
2022/05/07 06:40:44;;;;;;;16.48;5.72;;;;;;;;;;4937732;29;20036;-82
2022/05/07 06:43:10;;;;;;;9.45;4.43;;;;;;;;;;4937316;29;20030;-82
2022/05/07 06:46:04;;;;;;;10.48;5.50;;;;;;;;;;4926434;29;20035;-81
2022/05/07 06:48:34;;;;;;;14.07;5.15;;;;;;;;;;4936323;29;20495;-81
2022/05/07 06:51:05;;;;;;;9.45;5.05;;;;;;;;;;4952777;29;20067;-84
2022/05/07 06:53:33;;;;;;;13.70;5.43;;;;;;;;;;4952310;29;20035;-80
2022/05/07 06:56:02;;;;;;;10.02;5.30;;;;;;;;;;4952686;29;20164;-81
2022/05/07 06:58:30;;;;;;;7.32;4.75;;;;;;;;;;4920259;29;20415;-81
2022/05/07 07:00:56;;;;;;;8.20;4.47;;;;;;;;;;4953305;29;20031;-82
2022/05/07 07:03:23;;;;;;;10.68;4.57;;;;;;;;;;4937000;29;20076;-82
2022/05/07 07:05:50;;;;;;;12.15;5.18;;;;;;;;;;4940227;29;20019;-82
2022/05/07 07:08:16;;;;;;;11.20;4.18;;;;;;;;;;4958009;29;20476;-82
2022/05/07 07:10:41;;;;;;;10.55;4.95;;;;;;;;;;4941811;29;20038;-81
2022/05/07 07:13:07;;;;;;;10.70;4.70;;;;;;;;;;4955580;29;20063;-81
2022/05/07 07:15:37;;;;;;;12.10;5.15;;;;;;;;;;4942974;29;20495;-80
2022/05/07 07:18:09;;;;;;;12.25;4.95;;;;;;;;;;4949371;29;20035;-82
2022/05/07 07:20:38;;;;;;;14.40;5.10;;;;;;;;;;4951313;29;20497;-79
2022/05/07 07:23:10;;;;;;;9.70;5.50;;;;;;;;;;4932896;29;20040;-79
2022/05/07 07:25:35;;;;;;;13.77;5.55;;;;;;;;;;4950944;29;20027;-81
2022/05/07 07:28:01;;;;;;;14.77;5.18;;;;;;;;;;4962156;29;20369;-80
2022/05/07 07:30:26;;;;;;;12.57;5.13;;;;;;;;;;4945871;29;20415;-80
2022/05/07 07:32:52;;;;;;;10.80;5.28;;;;;;;;;;4963450;29;20038;-82
2022/05/07 07:35:17;;;;;;;7.82;4.32;;;;;;;;;;4949649;29;20036;-79
2022/05/07 07:37:45;;;;;;;16.23;5.43;;;;;;;;;;4949211;29;20039;-79
2022/05/07 07:40:14;;;;;;;9.77;3.90;;;;;;;;;;4957612;28;20106;-80
2022/05/07 07:42:41;;;;;;;10.02;4.40;;;;;;;;;;4946064;29;20034;-79
2022/05/07 07:47:59;;;;;;;9.75;3.47;;;;;;;;;;4938944;29;20476;-81
2022/05/07 07:50:26;;;;;;;13.23;3.97;;;;;;;;;;4954357;29;20034;-82
2022/05/07 07:52:53;;;;;;;8.32;3.40;;;;;;;;;;4921518;29;20043;-82
2022/05/07 07:55:19;;;;;;;10.82;3.72;;;;;;;;;;4952871;29;20479;-82
2022/05/07 07:57:44;;;;;;;8.40;3.35;;;;;;;;;;4937808;29;20095;-83
2022/05/07 08:00:13;;;;;;;7.13;3.50;;;;;;;;;;4938508;29;20047;-81
2022/05/07 08:02:47;;;;;;;8.88;3.20;;;;;;;;;;4936574;29;20043;-80
2022/05/07 08:05:13;;;;;;;9.60;2.95;;;;;;;;;;4939022;29;20114;-79
2022/05/07 08:13:11;;;;;;;6.88;3.13;;;;;;;;;;4923515;29;20032;-80
2022/05/07 08:15:38;;;;;;;8.82;3.20;;;;;;;;;;4924859;29;20059;-79
2022/05/07 08:18:05;;;;;;;;;;;;;;;;;;4939409;29;20045;-80
2022/05/07 08:20:31;;;;;;;8.27;3.40;;;;;;;;;;4937045;29;19910;-80
2022/05/07 08:22:56;;;;;;;8.50;3.33;;;;;;;;;;4935779;29;20036;-80
2022/05/07 08:25:22;;;;;;;7.22;2.97;;;;;;;;;;4937086;29;20034;-79
2022/05/07 08:27:47;;;;;;;8.02;3.00;;;;;;;;;;4936567;29;20034;-80
2022/05/07 08:30:13;;;;;;;12.63;3.10;;;;;;;;;;4936250;29;20059;-80
2022/05/07 08:32:39;;;;;;;6.82;3.00;;;;;;;;;;4934664;29;20042;-80
2022/05/07 08:35:05;;;;;;;10.93;3.28;;;;;;;;;;4919170;29;20407;-82
2022/05/07 08:37:30;;;;;;;6.45;2.80;;;;;;;;;;4935206;29;20460;-79
2022/05/07 08:40:01;;;;;;;8.07;3.00;;;;;;;;;;4950185;29;20032;-82
2022/05/07 08:42:30;;;;;;;10.00;2.80;;;;;;;;;;4934082;29;20040;-81
2022/05/07 08:44:56;;;;;;;7.93;2.75;;;;;;;;;;4933722;29;20030;-80
2022/05/07 08:47:23;;;;;;;8.43;2.80;;;;;;;;;;4935079;29;20387;-78
2022/05/07 08:49:50;;;;;;;8.57;3.42;;;;;;;;;;4920468;29;20027;-79
2022/05/07 08:52:19;;;;;;;9.43;2.80;;;;;;;;;;4938191;29;20483;-82
2022/05/07 08:54:48;;;;;;;9.48;2.92;;;;;;;;;;4923707;29;20271;-82
2022/05/07 08:57:15;;;;;;;11.45;4.25;;;;;;;;;;4939517;29;20062;-80
2022/05/07 08:59:42;;;;;;;5.38;2.80;;;;;;;;;;4938445;29;20551;-79
2022/05/07 09:02:10;;;;;;;9.40;3.17;;;;;;;;;;4938201;29;20490;-80
2022/05/07 09:04:37;;;;;;;5.90;2.60;;;;;;;;;;4935632;29;20028;-81
2022/05/07 09:07:03;;;;;;;6.93;2.97;;;;;;;;;;4937778;29;20028;-80
2022/05/07 09:09:31;;;;;;;6.45;2.63;;;;;;;;;;4938316;29;20035;-81
2022/05/07 09:11:57;;;;;;;7.03;2.90;;;;;;;;;;4938012;29;20031;-78
2022/05/07 09:14:31;;;;;;;5.25;2.65;;;;;;;;;;4935356;29;20028;-81
2022/05/07 09:17:00;;;;;;;9.88;3.35;;;;;;;;;;4920263;29;20502;-79
2022/05/07 09:19:27;;;;;;;7.28;3.20;;;;;;;;;;4936727;29;20024;-79
2022/05/07 09:22:05;;;;;;;6.88;2.70;;;;;;;;;;4919984;29;20114;-79
2022/05/07 09:24:31;;;;;;;5.68;2.40;;;;;;;;;;4935955;29;20051;-79
2022/05/07 09:26:57;;;;;;;5.78;3.17;;;;;;;;;;4943640;29;20032;-80
2022/05/07 09:29:26;;;;;;;6.75;2.67;;;;;;;;;;4929145;29;20028;-81
2022/05/07 09:31:51;;;;;;;6.68;2.83;;;;;;;;;;4945438;29;20059;-80
2022/05/07 09:37:16;;;;;;;5.75;2.22;;;;;;;;;;4933882;29;20047;-79
2022/05/07 09:39:45;;;;;;;4.90;2.38;;;;;;;;;;4933555;29;20595;-81
2022/05/07 09:42:15;;;;;;;6.03;2.63;;;;;;;;;;4934815;29;20036;-80
2022/05/07 09:44:42;;;;;;;6.50;3.28;;;;;;;;;;4933017;29;20419;-80
2022/05/07 09:47:11;;;;;;;4.07;2.20;;;;;;;;;;4917946;29;20032;-81
2022/05/07 09:50:19;;;;;;;5.07;2.38;;;;;;;;;;4933474;29;20038;-80
2022/05/07 09:52:23;;;;;;;4.80;2.05;;;;;;;;;;4934543;29;20422;-79
2022/05/07 09:57:33;;;;;;;8.00;2.67;;;;;;;;;;4952260;29;20495;-80
2022/05/07 10:00:07;;;;;;;4.68;2.10;;;;;;;;;;4938951;29;20046;-79
2022/05/07 10:02:57;;;;;;;4.38;2.35;;;;;;;;;;4951032;29;20063;-79
2022/05/07 10:05:26;;;;;;;6.93;2.00;;;;;;;;;;4940013;29;20426;-80
2022/05/07 10:08:01;;;;;;;7.45;1.92;;;;;;;;;;4958919;29;20035;-79
2022/05/07 10:10:29;;;;;;;6.03;2.10;;;;;;;;;;4940428;29;20059;-79
2022/05/07 10:12:59;;;;;;;4.88;2.28;;;;;;;;;;4923210;29;20570;-80
2022/05/07 10:15:25;;;;;;;3.75;1.80;;;;;;;;;;4938657;29;20031;-80
2022/05/07 10:18:02;;;;;;;5.53;2.47;;;;;;;;;;4939670;29;20048;-80
2022/05/07 10:20:38;;;;;;;7.35;2.60;;;;;;;;;;4937875;29;20043;-79
2022/05/07 10:23:04;;;;;;;5.47;2.70;;;;;;;;;;4938171;29;20040;-81
2022/05/07 10:25:32;;;;;;;4.93;2.30;;;;;;;;;;4938643;29;20395;-80
2022/05/07 10:28:06;;;;;;;5.32;2.50;;;;;;;;;;4907206;29;20035;-80
2022/05/07 10:30:43;;;;;;;4.50;1.88;;;;;;;;;;4937729;29;20032;-79
2022/05/07 10:33:11;;;;;;;6.13;2.22;;;;;;;;;;4937838;29;20055;-78
2022/05/07 10:35:38;;;;;;;4.88;1.80;;;;;;;;;;4938975;29;20035;-79
2022/05/07 10:38:10;;;;;;;3.58;1.88;;;;;;;;;;4938694;29;20067;-79
2022/05/07 10:40:36;;;;;;;3.90;1.80;;;;;;;;;;4921643;29;20040;-78
2022/05/07 10:43:06;;;;;;;5.50;2.10;;;;;;;;;;4935882;29;20027;-79
2022/05/07 10:45:39;;;;;;;6.85;1.73;;;;;;;;;;4939170;29;20506;-80
2022/05/07 10:48:15;;;;;;;3.38;1.63;;;;;;;;;;4922316;29;20377;-79
2022/05/07 10:50:49;;;;;;;9.73;1.80;;;;;;;;;;4937398;29;20027;-80
2022/05/07 10:53:14;;;;;;;5.57;1.58;;;;;;;;;;4953256;29;20225;-80
2022/05/07 10:55:40;;;;;;;3.78;1.52;;;;;;;;;;4938426;29;20480;-80
2022/05/07 10:58:05;;;;;;;20.13;2.58;;;;;;;;;;4953894;29;20102;-80
2022/05/07 11:00:31;;;;;;;4.93;1.80;;;;;;;;;;4937836;29;20035;-81
2022/05/07 11:03:00;;;;;;;7.88;2.10;;;;;;;;;;4941317;29;20029;-81
2022/05/07 11:05:31;;;;;;;5.07;1.38;;;;;;;;;;4938605;29;20035;-79
2022/05/07 11:07:58;;;;;;;3.83;1.55;;;;;;;;;;4937296;29;20046;-78
2022/05/07 11:10:24;;;;;;;6.25;1.80;;;;;;;;;;4937189;29;20496;-79
2022/05/07 11:12:50;;;;;;;4.25;1.67;;;;;;;;;;4938752;29;20106;-80
2022/05/07 11:15:23;;;;;;;3.88;1.73;;;;;;;;;;4953413;28;20032;-78
2022/05/07 11:17:48;;;;;;;4.55;2.20;;;;;;;;;;4953960;29;20187;-79
2022/05/07 11:20:35;;;;;;;9.60;1.90;;;;;;;;;;4953355;29;20094;-78
2022/05/07 11:23:02;;;;;;;8.38;2.03;;;;;;;;;;4938893;29;20039;-80
2022/05/07 11:25:28;;;;;;;5.85;2.20;;;;;;;;;;4937363;29;20051;-80
2022/05/07 11:28:00;;;;;;;5.18;1.85;;;;;;;;;;4939468;29;20056;-80
2022/05/07 11:30:25;;;;;;;4.07;1.77;;;;;;;;;;4942497;29;20024;-79
2022/05/07 11:33:02;;;;;;;4.93;1.80;;;;;;;;;;4957052;29;20044;-80
2022/05/07 11:35:28;;;;;;;4.22;1.75;;;;;;;;;;4938895;29;20256;-78
2022/05/07 11:37:54;;;;;;;5.25;1.70;;;;;;;;;;4941200;29;20487;-79
2022/05/07 11:40:27;;;;;;;4.82;1.65;;;;;;;;;;4940109;29;20456;-79
2022/05/07 11:45:25;;;;;;;7.72;2.20;;;;;;;;;;4937875;29;20042;-80
2022/05/07 11:45:40;;;;;;;;;;;;;;;;;;4936933;29;20035;-79
2022/05/07 11:48:17;;;;;;;4.00;1.65;;;;;;;;;;4937182;29;19907;-78
2022/05/07 11:50:55;;;;;;;7.88;1.50;;;;;;;;;;4936710;29;20498;-79
2022/05/07 11:53:22;;;;;;;4.13;1.70;;;;;;;;;;4936179;29;20035;-79
2022/05/07 11:55:49;;;;;;;7.15;2.03;;;;;;;;;;4936451;29;20046;-78
2022/05/07 11:58:20;;;;;;;7.55;1.70;;;;;;;;;;4936707;29;20061;-80
2022/05/07 12:00:47;;;;;;;3.05;1.70;;;;;;;;;;4937673;29;20043;-80
2022/05/07 12:03:16;;;;;;;6.43;1.95;;;;;;;;;;4935212;29;20082;-81
2022/05/07 12:05:43;;;;;;;4.65;1.80;;;;;;;;;;4935102;29;20043;-79
2022/05/07 12:08:35;;;;;;;4.50;2.05;;;;;;;;;;4936757;29;20031;-80
2022/05/07 12:11:00;;;;;;;5.07;1.60;;;;;;;;;;4934608;29;20074;-80
2022/05/07 12:13:29;;;;;;;4.60;2.70;;;;;;;;;;4935828;29;20024;-80
2022/05/07 12:18:46;;;;;;;4.50;1.73;;;;;;;;;;4919019;29;20039;-80
2022/05/07 12:21:11;;;;;;;4.68;1.52;;;;;;;;;;4935530;29;20059;-80
2022/05/07 12:32:01;;;;;;;8.27;1.80;;;;;;;;;;4934448;29;20515;-80
2022/05/07 12:34:26;;;;;;;6.90;1.60;;;;;;;;;;4934001;29;20147;-80
2022/05/07 12:36:52;;;;;;;5.38;1.52;;;;;;;;;;4935446;29;20562;-79
2022/05/07 12:39:17;;;;;;;4.50;1.45;;;;;;;;;;4949980;29;20047;-79
2022/05/07 12:41:43;;;;;;;3.22;1.60;;;;;;;;;;4949713;29;20122;-80
2022/05/07 12:44:11;;;;;;;4.95;1.40;;;;;;;;;;4934802;29;20035;-79
2022/05/07 12:46:36;;;;;;;3.10;1.40;;;;;;;;;;4952793;29;20039;-79
2022/05/07 12:49:02;;;;;;;6.15;1.30;;;;;;;;;;4936144;29;20391;-80
2022/05/07 12:51:28;;;;;;;7.38;1.60;;;;;;;;;;4937980;29;20352;-80
2022/05/07 12:53:54;;;;;;;2.90;1.38;;;;;;;;;;4939158;29;20072;-79
2022/05/07 12:56:20;;;;;;;3.47;1.40;;;;;;;;;;4937069;29;20035;-78
2022/05/07 12:58:47;;;;;;;2.85;1.20;;;;;;;;;;4936924;29;20478;-79
2022/05/07 13:01:13;;;;;;;4.53;1.58;;;;;;;;;;4919320;29;20039;-79
2022/05/07 13:03:38;;;;;;;5.72;2.08;;;;;;;;;;4933993;29;20058;-79
2022/05/07 13:06:05;;;;;;;4.80;1.80;;;;;;;;;;4936477;29;20417;-79
2022/05/07 13:08:31;;;;;;;6.75;1.90;;;;;;;;;;4918991;29;20115;-78
2022/05/07 13:10:57;;;;;;;5.43;1.70;;;;;;;;;;4935932;29;20031;-80
2022/05/07 13:13:24;;;;;;;3.10;1.40;;;;;;;;;;4934923;29;20027;-79
2022/05/07 13:15:56;;;;;;;3.55;1.40;;;;;;;;;;4938653;29;20063;-79
2022/05/07 13:18:21;;;;;;;3.10;1.50;;;;;;;;;;4922856;29;20060;-79
2022/05/07 13:20:48;;;;;;;4.53;1.50;;;;;;;;;;4934662;29;20482;-79
2022/05/07 13:23:13;;;;;;;5.05;1.33;;;;;;;;;;4934605;29;20032;-81
2022/05/07 13:25:39;;;;;;;3.22;1.30;;;;;;;;;;4952827;29;20495;-79
2022/05/07 13:28:05;;;;;;;4.20;1.50;;;;;;;;;;4936518;29;20115;-81
2022/05/07 13:30:32;;;;;;;3.83;1.37;;;;;;;;;;4918960;29;20039;-79
2022/05/07 13:32:59;;;;;;;4.90;1.63;;;;;;;;;;4935438;29;20370;-81
2022/05/07 13:35:34;;;;;;;3.97;1.60;;;;;;;;;;4934359;29;20392;-80
2022/05/07 13:37:59;;;;;;;3.20;1.48;;;;;;;;;;4948733;29;20035;-80
2022/05/07 13:40:25;;;;;;;8.90;1.58;;;;;;;;;;4935297;29;20047;-79
2022/05/07 13:42:53;;;;;;;5.47;1.80;;;;;;;;;;4917999;29;20430;-78
2022/05/07 13:45:20;;;;;;;3.05;1.30;;;;;;;;;;4934319;29;20036;-79
2022/05/07 13:47:45;;;;;;;2.80;1.30;;;;;;;;;;4935227;29;20023;-78
2022/05/07 13:50:12;;;;;;;4.45;1.88;;;;;;;;;;4950700;29;20063;-80
2022/05/07 13:52:38;;;;;;;4.15;1.55;;;;;;;;;;4920951;29;20389;-79
2022/05/07 13:55:05;;;;;;;3.60;1.42;;;;;;;;;;4936099;29;20090;-79
2022/05/07 13:57:31;;;;;;;4.00;1.30;;;;;;;;;;4933622;29;20028;-78
2022/05/07 13:59:57;;;;;;;2.42;1.17;;;;;;;;;;4934094;29;20062;-79
2022/05/07 14:02:23;;;;;;;7.45;1.50;;;;;;;;;;4934516;29;20027;-79
2022/05/07 14:04:49;;;;;;;3.70;1.65;;;;;;;;;;4935676;29;20031;-79
2022/05/07 14:07:17;;;;;;;1.95;1.15;;;;;;;;;;4917902;29;20035;-78
2022/05/07 14:09:47;;;;;;;2.35;1.30;;;;;;;;;;4933203;29;20488;-78
2022/05/07 14:12:16;;;;;;;4.05;1.55;;;;;;;;;;4949057;29;20452;-79
2022/05/07 14:14:42;;;;;;;2.97;1.48;;;;;;;;;;4932931;29;20055;-79
2022/05/07 14:17:09;;;;;;;3.25;1.48;;;;;;;;;;4932829;29;20510;-79
2022/05/07 14:19:34;;;;;;;4.80;1.40;;;;;;;;;;4933240;29;20032;-80
2022/05/07 14:22:00;;;;;;;6.47;1.42;;;;;;;;;;4933367;29;20059;-79
2022/05/07 14:24:26;;;;;;;5.03;1.80;;;;;;;;;;4916620;29;20484;-79
2022/05/07 14:26:51;;;;;;;4.38;1.70;;;;;;;;;;4934164;29;20036;-80
2022/05/07 14:29:17;;;;;;;5.53;2.13;;;;;;;;;;4934469;29;20087;-79
2022/05/07 14:31:42;;;;;;;6.32;1.80;;;;;;;;;;4934812;29;20039;-79
2022/05/07 14:34:08;;;;;;;4.95;1.38;;;;;;;;;;4948477;29;20046;-80
2022/05/07 14:36:33;;;;;;;2.95;1.42;;;;;;;;;;4917091;29;20032;-78
2022/05/07 14:38:59;;;;;;;3.08;1.40;;;;;;;;;;4934760;29;20028;-78
2022/05/07 14:41:25;;;;;;;3.72;1.50;;;;;;;;;;4933922;29;20087;-80
2022/05/07 14:43:50;;;;;;;3.80;1.40;;;;;;;;;;4933615;29;20059;-79
2022/05/07 14:46:16;;;;;;;4.57;1.60;;;;;;;;;;4932963;29;20498;-78
2022/05/07 14:48:42;;;;;;;4.07;1.63;;;;;;;;;;4935880;29;20039;-78
2022/05/07 14:51:07;;;;;;;8.20;1.60;;;;;;;;;;4937936;29;20031;-79
2022/05/07 14:53:33;;;;;;;5.70;1.52;;;;;;;;;;4920231;29;20126;-79
2022/05/07 14:55:58;;;;;;;6.38;2.00;;;;;;;;;;4936179;29;20562;-79
2022/05/07 14:58:23;;;;;;;6.22;1.77;;;;;;;;;;4935974;29;20039;-79
2022/05/07 15:00:50;;;;;;;3.00;1.40;;;;;;;;;;4951773;29;20518;-79
2022/05/07 15:03:17;;;;;;;3.55;1.55;;;;;;;;;;4936905;29;20032;-80
2022/05/07 15:05:43;;;;;;;4.43;1.48;;;;;;;;;;4936219;29;20031;-78
2022/05/07 15:10:53;;;;;;;2.90;1.40;;;;;;;;;;4935917;29;20031;-77
2022/05/07 15:13:22;;;;;;;3.50;1.17;;;;;;;;;;4904082;29;20499;-79
2022/05/07 15:15:48;;;;;;;2.95;1.77;;;;;;;;;;4935967;29;20144;-79
2022/05/07 15:18:13;;;;;;;9.40;2.63;;;;;;;;;;4920370;29;20036;-79
2022/05/07 15:20:39;;;;;;;3.88;1.52;;;;;;;;;;4953581;29;20038;-80
2022/05/07 15:23:06;;;;;;;3.85;1.30;;;;;;;;;;4937465;29;20090;-80